sensor_id;sensor_type;location;lat;lon;timestamp;temperature;humidity
27781;DHT22;15167;1.318;103.762;2023-05-07T00:01:59;27.40;99.90
27781;DHT22;15167;1.318;103.762;2023-05-07T00:04:25;27.40;99.90
27781;DHT22;15167;1.318;103.762;2023-05-07T00:06:52;27.50;99.90
27781;DHT22;15167;1.318;103.762;2023-05-07T00:09:18;27.60;99.90
27781;DHT22;15167;1.318;103.762;2023-05-07T00:11:44;27.60;99.90
27781;DHT22;15167;1.318;103.762;2023-05-07T00:14:10;27.70;99.90
27781;DHT22;15167;1.318;103.762;2023-05-07T00:16:37;27.70;99.90
27781;DHT22;15167;1.318;103.762;2023-05-07T00:19:03;27.70;99.90
27781;DHT22;15167;1.318;103.762;2023-05-07T00:21:29;27.70;99.90
27781;DHT22;15167;1.318;103.762;2023-05-07T00:23:56;27.80;99.90
27781;DHT22;15167;1.318;103.762;2023-05-07T00:26:22;28.00;99.90
27781;DHT22;15167;1.318;103.762;2023-05-07T00:28:48;28.00;99.90
27781;DHT22;15167;1.318;103.762;2023-05-07T00:31:14;28.00;99.90
27781;DHT22;15167;1.318;103.762;2023-05-07T00:33:40;28.10;99.90
27781;DHT22;15167;1.318;103.762;2023-05-07T00:36:06;27.90;99.90
27781;DHT22;15167;1.318;103.762;2023-05-07T00:38:32;28.20;99.90
27781;DHT22;15167;1.318;103.762;2023-05-07T00:40:59;28.30;99.90
27781;DHT22;15167;1.318;103.762;2023-05-07T00:43:25;28.30;99.90
27781;DHT22;15167;1.318;103.762;2023-05-07T00:45:53;28.40;99.90
27781;DHT22;15167;1.318;103.762;2023-05-07T00:48:19;28.40;99.90
27781;DHT22;15167;1.318;103.762;2023-05-07T00:50:45;28.50;99.90
27781;DHT22;15167;1.318;103.762;2023-05-07T00:53:12;28.50;99.90
27781;DHT22;15167;1.318;103.762;2023-05-07T00:55:38;28.60;99.90
27781;DHT22;15167;1.318;103.762;2023-05-07T00:58:05;28.70;99.90
27781;DHT22;15167;1.318;103.762;2023-05-07T01:00:31;28.80;99.90
27781;DHT22;15167;1.318;103.762;2023-05-07T01:02:57;28.80;99.90
27781;DHT22;15167;1.318;103.762;2023-05-07T01:05:24;28.90;99.90
27781;DHT22;15167;1.318;103.762;2023-05-07T01:07:50;28.90;99.90
27781;DHT22;15167;1.318;103.762;2023-05-07T01:10:18;28.90;99.90
27781;DHT22;15167;1.318;103.762;2023-05-07T01:12:44;29.00;99.90
27781;DHT22;15167;1.318;103.762;2023-05-07T01:15:11;29.00;99.90
27781;DHT22;15167;1.318;103.762;2023-05-07T01:17:38;29.10;99.90
27781;DHT22;15167;1.318;103.762;2023-05-07T01:20:04;29.20;99.90
27781;DHT22;15167;1.318;103.762;2023-05-07T01:25:00;29.30;99.90
27781;DHT22;15167;1.318;103.762;2023-05-07T01:27:27;29.40;99.90
27781;DHT22;15167;1.318;103.762;2023-05-07T01:29:53;29.40;99.90
27781;DHT22;15167;1.318;103.762;2023-05-07T01:32:21;29.50;99.90
27781;DHT22;15167;1.318;103.762;2023-05-07T01:34:49;29.50;99.90
27781;DHT22;15167;1.318;103.762;2023-05-07T01:37:16;29.60;99.90
27781;DHT22;15167;1.318;103.762;2023-05-07T01:39:42;29.70;99.90
27781;DHT22;15167;1.318;103.762;2023-05-07T01:42:09;29.70;99.90
27781;DHT22;15167;1.318;103.762;2023-05-07T01:44:35;29.80;99.90
27781;DHT22;15167;1.318;103.762;2023-05-07T01:47:01;29.90;99.90
27781;DHT22;15167;1.318;103.762;2023-05-07T01:49:28;29.90;99.90
27781;DHT22;15167;1.318;103.762;2023-05-07T01:51:54;29.90;76.20
27781;DHT22;15167;1.318;103.762;2023-05-07T01:54:30;29.80;80.90
27781;DHT22;15167;1.318;103.762;2023-05-07T01:56:56;29.80;75.50
27781;DHT22;15167;1.318;103.762;2023-05-07T01:59:23;29.80;70.00
27781;DHT22;15167;1.318;103.762;2023-05-07T02:01:49;29.80;46.90
27781;DHT22;15167;1.318;103.762;2023-05-07T02:04:15;29.90;39.30
27781;DHT22;15167;1.318;103.762;2023-05-07T02:06:41;29.90;16.40
27781;DHT22;15167;1.318;103.762;2023-05-07T02:09:07;30.00;4.40
27781;DHT22;15167;1.318;103.762;2023-05-07T02:11:34;30.00;2.30
27781;DHT22;15167;1.318;103.762;2023-05-07T02:14:00;29.90;16.10
27781;DHT22;15167;1.318;103.762;2023-05-07T02:16:26;30.00;13.70
27781;DHT22;15167;1.318;103.762;2023-05-07T02:18:53;30.00;2.30
27781;DHT22;15167;1.318;103.762;2023-05-07T02:21:19;30.20;1.00
27781;DHT22;15167;1.318;103.762;2023-05-07T02:23:45;30.30;1.00
27781;DHT22;15167;1.318;103.762;2023-05-07T02:26:11;30.30;1.00
27781;DHT22;15167;1.318;103.762;2023-05-07T02:28:37;30.40;1.00
27781;DHT22;15167;1.318;103.762;2023-05-07T02:31:03;30.50;1.00
27781;DHT22;15167;1.318;103.762;2023-05-07T02:33:29;30.70;99.90
27781;DHT22;15167;1.318;103.762;2023-05-07T02:35:56;30.80;99.90
27781;DHT22;15167;1.318;103.762;2023-05-07T02:38:22;30.90;99.90
27781;DHT22;15167;1.318;103.762;2023-05-07T02:40:49;30.90;99.90
27781;DHT22;15167;1.318;103.762;2023-05-07T02:43:15;31.10;99.90
27781;DHT22;15167;1.318;103.762;2023-05-07T02:45:41;31.20;99.90
27781;DHT22;15167;1.318;103.762;2023-05-07T02:48:08;31.20;99.90
27781;DHT22;15167;1.318;103.762;2023-05-07T02:50:34;31.30;99.90
27781;DHT22;15167;1.318;103.762;2023-05-07T02:53:00;31.40;99.90
27781;DHT22;15167;1.318;103.762;2023-05-07T02:55:27;31.50;99.90
27781;DHT22;15167;1.318;103.762;2023-05-07T02:57:53;31.70;99.90
27781;DHT22;15167;1.318;103.762;2023-05-07T03:00:19;31.70;99.90
27781;DHT22;15167;1.318;103.762;2023-05-07T03:02:45;31.80;99.90
27781;DHT22;15167;1.318;103.762;2023-05-07T03:05:11;31.70;99.90
27781;DHT22;15167;1.318;103.762;2023-05-07T03:07:38;31.80;99.90
27781;DHT22;15167;1.318;103.762;2023-05-07T03:10:05;31.80;99.90
27781;DHT22;15167;1.318;103.762;2023-05-07T03:12:31;31.80;99.90
27781;DHT22;15167;1.318;103.762;2023-05-07T03:14:57;32.00;99.90
27781;DHT22;15167;1.318;103.762;2023-05-07T03:17:24;31.90;99.90
27781;DHT22;15167;1.318;103.762;2023-05-07T03:19:50;32.00;99.90
27781;DHT22;15167;1.318;103.762;2023-05-07T03:22:16;32.10;99.90
27781;DHT22;15167;1.318;103.762;2023-05-07T03:24:42;32.20;99.90
27781;DHT22;15167;1.318;103.762;2023-05-07T03:27:08;32.30;99.90
27781;DHT22;15167;1.318;103.762;2023-05-07T03:29:34;32.40;99.90
27781;DHT22;15167;1.318;103.762;2023-05-07T03:32:00;32.40;99.90
27781;DHT22;15167;1.318;103.762;2023-05-07T03:34:26;32.50;81.20
27781;DHT22;15167;1.318;103.762;2023-05-07T03:36:52;32.60;66.80
27781;DHT22;15167;1.318;103.762;2023-05-07T03:39:18;32.60;54.80
27781;DHT22;15167;1.318;103.762;2023-05-07T03:41:45;32.60;47.40
27781;DHT22;15167;1.318;103.762;2023-05-07T03:44:11;32.70;53.80
27781;DHT22;15167;1.318;103.762;2023-05-07T03:46:37;32.80;17.30
27781;DHT22;15167;1.318;103.762;2023-05-07T03:49:03;32.90;1.00
27781;DHT22;15167;1.318;103.762;2023-05-07T03:51:29;33.00;1.00
27781;DHT22;15167;1.318;103.762;2023-05-07T03:53:56;33.10;1.00
27781;DHT22;15167;1.318;103.762;2023-05-07T03:56:23;33.20;1.00
27781;DHT22;15167;1.318;103.762;2023-05-07T03:58:52;33.20;1.00
27781;DHT22;15167;1.318;103.762;2023-05-07T04:01:18;33.10;1.00
27781;DHT22;15167;1.318;103.762;2023-05-07T04:03:44;33.10;1.00
27781;DHT22;15167;1.318;103.762;2023-05-07T04:06:10;33.20;1.00
27781;DHT22;15167;1.318;103.762;2023-05-07T04:08:37;33.30;1.00
27781;DHT22;15167;1.318;103.762;2023-05-07T04:11:03;33.30;1.00
27781;DHT22;15167;1.318;103.762;2023-05-07T04:13:29;33.40;1.00
27781;DHT22;15167;1.318;103.762;2023-05-07T04:15:56;33.50;1.00
27781;DHT22;15167;1.318;103.762;2023-05-07T04:18:22;33.30;1.00
27781;DHT22;15167;1.318;103.762;2023-05-07T04:20:48;33.30;1.00
27781;DHT22;15167;1.318;103.762;2023-05-07T04:23:17;33.40;99.90
27781;DHT22;15167;1.318;103.762;2023-05-07T04:25:43;33.50;99.90
27781;DHT22;15167;1.318;103.762;2023-05-07T04:28:09;33.70;99.90
27781;DHT22;15167;1.318;103.762;2023-05-07T04:30:35;33.70;99.90
27781;DHT22;15167;1.318;103.762;2023-05-07T04:33:01;33.90;99.90
27781;DHT22;15167;1.318;103.762;2023-05-07T04:35:28;34.00;99.90
27781;DHT22;15167;1.318;103.762;2023-05-07T04:37:54;34.10;99.90
27781;DHT22;15167;1.318;103.762;2023-05-07T04:40:20;34.10;99.90
27781;DHT22;15167;1.318;103.762;2023-05-07T04:42:46;34.30;99.90
27781;DHT22;15167;1.318;103.762;2023-05-07T04:45:12;34.30;99.90
27781;DHT22;15167;1.318;103.762;2023-05-07T04:47:38;34.40;45.50
27781;DHT22;15167;1.318;103.762;2023-05-07T04:50:06;34.50;32.20
27781;DHT22;15167;1.318;103.762;2023-05-07T04:52:32;34.50;27.40
27781;DHT22;15167;1.318;103.762;2023-05-07T04:54:59;34.70;1.00
27781;DHT22;15167;1.318;103.762;2023-05-07T04:57:25;34.80;1.00
27781;DHT22;15167;1.318;103.762;2023-05-07T04:59:52;34.70;1.00
27781;DHT22;15167;1.318;103.762;2023-05-07T05:02:18;34.70;40.20
27781;DHT22;15167;1.318;103.762;2023-05-07T05:04:44;34.60;69.00
27781;DHT22;15167;1.318;103.762;2023-05-07T05:07:10;34.60;28.20
27781;DHT22;15167;1.318;103.762;2023-05-07T05:09:36;34.50;1.00
27781;DHT22;15167;1.318;103.762;2023-05-07T05:12:02;34.40;1.00
27781;DHT22;15167;1.318;103.762;2023-05-07T05:14:29;34.40;1.00
27781;DHT22;15167;1.318;103.762;2023-05-07T05:16:55;34.40;1.00
27781;DHT22;15167;1.318;103.762;2023-05-07T05:19:21;34.60;99.90
27781;DHT22;15167;1.318;103.762;2023-05-07T05:21:47;34.70;99.90
27781;DHT22;15167;1.318;103.762;2023-05-07T05:24:13;34.90;60.20
27781;DHT22;15167;1.318;103.762;2023-05-07T05:26:39;35.10;20.60
27781;DHT22;15167;1.318;103.762;2023-05-07T05:29:05;35.10;1.00
27781;DHT22;15167;1.318;103.762;2023-05-07T05:31:32;35.10;1.00
27781;DHT22;15167;1.318;103.762;2023-05-07T05:33:59;35.10;48.80
27781;DHT22;15167;1.318;103.762;2023-05-07T05:36:25;35.30;99.90
27781;DHT22;15167;1.318;103.762;2023-05-07T05:38:51;35.50;99.90
27781;DHT22;15167;1.318;103.762;2023-05-07T05:41:17;35.70;99.90
27781;DHT22;15167;1.318;103.762;2023-05-07T05:43:43;35.50;99.90
27781;DHT22;15167;1.318;103.762;2023-05-07T05:46:10;35.50;99.90
27781;DHT22;15167;1.318;103.762;2023-05-07T05:48:37;35.50;26.30
27781;DHT22;15167;1.318;103.762;2023-05-07T05:51:03;35.60;1.00
27781;DHT22;15167;1.318;103.762;2023-05-07T05:53:29;35.60;99.90
27781;DHT22;15167;1.318;103.762;2023-05-07T05:55:55;35.80;1.00
27781;DHT22;15167;1.318;103.762;2023-05-07T05:58:21;35.80;1.00
27781;DHT22;15167;1.318;103.762;2023-05-07T06:00:47;35.60;99.90
27781;DHT22;15167;1.318;103.762;2023-05-07T06:03:14;35.50;99.90
27781;DHT22;15167;1.318;103.762;2023-05-07T06:05:40;35.70;15.40
27781;DHT22;15167;1.318;103.762;2023-05-07T06:08:06;35.50;1.00
27781;DHT22;15167;1.318;103.762;2023-05-07T06:10:32;35.40;3.20
27781;DHT22;15167;1.318;103.762;2023-05-07T06:12:58;35.70;99.90
27781;DHT22;15167;1.318;103.762;2023-05-07T06:15:24;35.70;99.90
27781;DHT22;15167;1.318;103.762;2023-05-07T06:17:50;35.80;9.50
27781;DHT22;15167;1.318;103.762;2023-05-07T06:20:16;36.00;99.90
27781;DHT22;15167;1.318;103.762;2023-05-07T06:22:42;36.00;95.90
27781;DHT22;15167;1.318;103.762;2023-05-07T06:25:09;35.90;1.00
27781;DHT22;15167;1.318;103.762;2023-05-07T06:27:35;36.00;99.90
27781;DHT22;15167;1.318;103.762;2023-05-07T06:30:01;36.00;1.00
27781;DHT22;15167;1.318;103.762;2023-05-07T06:32:27;36.10;1.00
27781;DHT22;15167;1.318;103.762;2023-05-07T06:34:53;36.20;91.40
27781;DHT22;15167;1.318;103.762;2023-05-07T06:37:19;36.30;99.90
27781;DHT22;15167;1.318;103.762;2023-05-07T06:39:46;36.50;99.90
27781;DHT22;15167;1.318;103.762;2023-05-07T06:42:12;36.40;99.90
27781;DHT22;15167;1.318;103.762;2023-05-07T06:44:38;36.60;99.90
27781;DHT22;15167;1.318;103.762;2023-05-07T06:47:04;36.60;99.90
27781;DHT22;15167;1.318;103.762;2023-05-07T06:49:30;36.60;57.10
27781;DHT22;15167;1.318;103.762;2023-05-07T06:51:57;36.70;98.10
27781;DHT22;15167;1.318;103.762;2023-05-07T06:54:23;36.60;99.90
27781;DHT22;15167;1.318;103.762;2023-05-07T06:56:52;36.60;99.90
27781;DHT22;15167;1.318;103.762;2023-05-07T06:59:18;36.70;99.90
27781;DHT22;15167;1.318;103.762;2023-05-07T07:01:44;36.70;7.50
27781;DHT22;15167;1.318;103.762;2023-05-07T07:04:11;36.80;59.60
27781;DHT22;15167;1.318;103.762;2023-05-07T07:06:37;36.80;1.00
27781;DHT22;15167;1.318;103.762;2023-05-07T07:09:03;36.90;1.00
27781;DHT22;15167;1.318;103.762;2023-05-07T07:11:29;37.40;99.90
27781;DHT22;15167;1.318;103.762;2023-05-07T07:13:55;37.80;4.10
27781;DHT22;15167;1.318;103.762;2023-05-07T07:16:22;38.00;1.00
27781;DHT22;15167;1.318;103.762;2023-05-07T07:18:48;38.30;1.00
27781;DHT22;15167;1.318;103.762;2023-05-07T07:21:14;38.60;99.90
27781;DHT22;15167;1.318;103.762;2023-05-07T07:23:40;39.10;99.90
27781;DHT22;15167;1.318;103.762;2023-05-07T07:26:06;39.00;99.90
27781;DHT22;15167;1.318;103.762;2023-05-07T07:28:32;39.00;99.90
27781;DHT22;15167;1.318;103.762;2023-05-07T07:30:58;38.70;99.90
27781;DHT22;15167;1.318;103.762;2023-05-07T07:33:24;38.60;99.90
27781;DHT22;15167;1.318;103.762;2023-05-07T07:35:50;38.50;99.90
27781;DHT22;15167;1.318;103.762;2023-05-07T07:38:17;38.30;99.90
27781;DHT22;15167;1.318;103.762;2023-05-07T07:40:43;37.90;1.00
27781;DHT22;15167;1.318;103.762;2023-05-07T07:43:09;37.70;1.00
27781;DHT22;15167;1.318;103.762;2023-05-07T07:45:35;37.50;12.90
27781;DHT22;15167;1.318;103.762;2023-05-07T07:48:02;37.30;99.90
27781;DHT22;15167;1.318;103.762;2023-05-07T07:50:28;37.00;99.90
27781;DHT22;15167;1.318;103.762;2023-05-07T07:52:54;36.90;1.00
27781;DHT22;15167;1.318;103.762;2023-05-07T07:55:20;36.80;99.90
27781;DHT22;15167;1.318;103.762;2023-05-07T07:57:51;36.70;1.00
27781;DHT22;15167;1.318;103.762;2023-05-07T08:00:17;36.60;30.20
27781;DHT22;15167;1.318;103.762;2023-05-07T08:02:43;36.60;82.70
27781;DHT22;15167;1.318;103.762;2023-05-07T08:05:09;36.40;99.00
27781;DHT22;15167;1.318;103.762;2023-05-07T08:07:35;36.20;10.10
27781;DHT22;15167;1.318;103.762;2023-05-07T08:10:02;36.10;99.90
27781;DHT22;15167;1.318;103.762;2023-05-07T08:12:28;36.20;40.50
27781;DHT22;15167;1.318;103.762;2023-05-07T08:14:55;36.20;99.90
27781;DHT22;15167;1.318;103.762;2023-05-07T08:17:21;36.20;99.90
27781;DHT22;15167;1.318;103.762;2023-05-07T08:19:48;36.10;99.90
27781;DHT22;15167;1.318;103.762;2023-05-07T08:22:14;36.00;99.90
27781;DHT22;15167;1.318;103.762;2023-05-07T08:24:40;35.80;1.00
27781;DHT22;15167;1.318;103.762;2023-05-07T08:27:06;35.80;99.90
27781;DHT22;15167;1.318;103.762;2023-05-07T08:29:32;35.70;99.90
27781;DHT22;15167;1.318;103.762;2023-05-07T08:31:58;35.50;1.00
27781;DHT22;15167;1.318;103.762;2023-05-07T08:34:24;35.40;99.90
27781;DHT22;15167;1.318;103.762;2023-05-07T08:36:51;35.40;99.90
27781;DHT22;15167;1.318;103.762;2023-05-07T08:39:17;35.30;99.90
27781;DHT22;15167;1.318;103.762;2023-05-07T08:41:46;35.20;4.20
27781;DHT22;15167;1.318;103.762;2023-05-07T08:44:14;35.10;99.90
27781;DHT22;15167;1.318;103.762;2023-05-07T08:46:41;35.10;99.90
27781;DHT22;15167;1.318;103.762;2023-05-07T08:49:07;35.00;99.90
27781;DHT22;15167;1.318;103.762;2023-05-07T08:51:33;35.00;99.90
27781;DHT22;15167;1.318;103.762;2023-05-07T08:54:00;35.10;1.00
27781;DHT22;15167;1.318;103.762;2023-05-07T08:56:27;35.10;1.00
27781;DHT22;15167;1.318;103.762;2023-05-07T08:58:53;34.80;1.00
27781;DHT22;15167;1.318;103.762;2023-05-07T09:01:24;34.80;1.00
27781;DHT22;15167;1.318;103.762;2023-05-07T09:03:50;34.60;1.00
27781;DHT22;15167;1.318;103.762;2023-05-07T09:06:17;34.50;1.00
27781;DHT22;15167;1.318;103.762;2023-05-07T09:08:52;34.50;1.00
27781;DHT22;15167;1.318;103.762;2023-05-07T09:11:22;34.50;1.00
27781;DHT22;15167;1.318;103.762;2023-05-07T09:13:49;34.40;1.00
27781;DHT22;15167;1.318;103.762;2023-05-07T09:16:19;34.20;1.00
27781;DHT22;15167;1.318;103.762;2023-05-07T09:18:46;34.10;1.00
27781;DHT22;15167;1.318;103.762;2023-05-07T09:21:16;34.10;99.90
27781;DHT22;15167;1.318;103.762;2023-05-07T09:23:42;34.00;1.00
27781;DHT22;15167;1.318;103.762;2023-05-07T09:26:08;34.00;19.60
27781;DHT22;15167;1.318;103.762;2023-05-07T09:28:40;33.90;91.30
27781;DHT22;15167;1.318;103.762;2023-05-07T09:31:07;34.00;99.90
27781;DHT22;15167;1.318;103.762;2023-05-07T09:33:34;34.00;99.90
27781;DHT22;15167;1.318;103.762;2023-05-07T09:36:04;34.00;1.00
27781;DHT22;15167;1.318;103.762;2023-05-07T09:38:31;33.80;36.00
27781;DHT22;15167;1.318;103.762;2023-05-07T09:41:04;33.70;29.80
27781;DHT22;15167;1.318;103.762;2023-05-07T09:43:34;33.70;1.00
27781;DHT22;15167;1.318;103.762;2023-05-07T09:46:02;33.80;1.00
27781;DHT22;15167;1.318;103.762;2023-05-07T09:48:29;33.80;99.90
27781;DHT22;15167;1.318;103.762;2023-05-07T09:50:55;33.50;1.00
27781;DHT22;15167;1.318;103.762;2023-05-07T09:53:25;33.50;1.00
27781;DHT22;15167;1.318;103.762;2023-05-07T09:55:51;33.50;1.00
27781;DHT22;15167;1.318;103.762;2023-05-07T09:58:18;33.60;1.00
27781;DHT22;15167;1.318;103.762;2023-05-07T10:00:44;33.70;99.90
27781;DHT22;15167;1.318;103.762;2023-05-07T10:03:11;33.80;99.90
27781;DHT22;15167;1.318;103.762;2023-05-07T10:05:38;33.70;99.90
27781;DHT22;15167;1.318;103.762;2023-05-07T10:08:05;33.50;99.90
27781;DHT22;15167;1.318;103.762;2023-05-07T10:10:32;33.30;1.00
27781;DHT22;15167;1.318;103.762;2023-05-07T10:13:00;33.20;1.00
27781;DHT22;15167;1.318;103.762;2023-05-07T10:15:26;33.00;1.00
27781;DHT22;15167;1.318;103.762;2023-05-07T10:17:54;32.80;72.90
27781;DHT22;15167;1.318;103.762;2023-05-07T10:20:20;32.60;99.90
27781;DHT22;15167;1.318;103.762;2023-05-07T10:22:47;32.50;99.90
27781;DHT22;15167;1.318;103.762;2023-05-07T10:27:46;32.30;99.90
27781;DHT22;15167;1.318;103.762;2023-05-07T10:32:43;31.90;99.90
27781;DHT22;15167;1.318;103.762;2023-05-07T10:35:17;31.80;1.00
27781;DHT22;15167;1.318;103.762;2023-05-07T10:37:45;31.80;1.00
27781;DHT22;15167;1.318;103.762;2023-05-07T10:40:11;31.60;1.00
27781;DHT22;15167;1.318;103.762;2023-05-07T10:42:37;31.50;1.00
27781;DHT22;15167;1.318;103.762;2023-05-07T10:45:16;31.50;1.00
27781;DHT22;15167;1.318;103.762;2023-05-07T10:50:27;31.30;1.00
27781;DHT22;15167;1.318;103.762;2023-05-07T10:55:37;31.10;1.00
27781;DHT22;15167;1.318;103.762;2023-05-07T10:58:25;31.00;63.90
27781;DHT22;15167;1.318;103.762;2023-05-07T11:03:24;30.80;99.90
27781;DHT22;15167;1.318;103.762;2023-05-07T11:06:23;30.70;99.90
27781;DHT22;15167;1.318;103.762;2023-05-07T11:11:17;30.60;99.90
27781;DHT22;15167;1.318;103.762;2023-05-07T11:16:23;30.50;99.90
27781;DHT22;15167;1.318;103.762;2023-05-07T11:18:54;30.40;99.90
27781;DHT22;15167;1.318;103.762;2023-05-07T11:23:58;30.40;1.00
27781;DHT22;15167;1.318;103.762;2023-05-07T11:26:25;30.40;31.60
27781;DHT22;15167;1.318;103.762;2023-05-07T11:28:52;30.40;99.90
27781;DHT22;15167;1.318;103.762;2023-05-07T11:31:22;30.40;99.90
27781;DHT22;15167;1.318;103.762;2023-05-07T11:33:49;30.30;99.90
27781;DHT22;15167;1.318;103.762;2023-05-07T11:36:15;30.30;99.90
27781;DHT22;15167;1.318;103.762;2023-05-07T11:38:42;30.30;99.90
27781;DHT22;15167;1.318;103.762;2023-05-07T11:41:08;30.30;99.90
27781;DHT22;15167;1.318;103.762;2023-05-07T11:43:34;30.20;99.90
27781;DHT22;15167;1.318;103.762;2023-05-07T11:46:06;30.30;99.90
27781;DHT22;15167;1.318;103.762;2023-05-07T11:48:33;30.20;99.90
27781;DHT22;15167;1.318;103.762;2023-05-07T11:51:03;30.20;99.90
27781;DHT22;15167;1.318;103.762;2023-05-07T11:53:36;30.20;99.90
27781;DHT22;15167;1.318;103.762;2023-05-07T11:56:09;30.20;99.90
27781;DHT22;15167;1.318;103.762;2023-05-07T11:58:36;30.20;99.90
27781;DHT22;15167;1.318;103.762;2023-05-07T12:01:02;30.20;99.90
27781;DHT22;15167;1.318;103.762;2023-05-07T12:03:28;30.20;99.90
27781;DHT22;15167;1.318;103.762;2023-05-07T12:05:54;30.20;99.90
27781;DHT22;15167;1.318;103.762;2023-05-07T12:08:21;30.10;99.90
27781;DHT22;15167;1.318;103.762;2023-05-07T12:10:50;30.10;99.90
27781;DHT22;15167;1.318;103.762;2023-05-07T12:13:21;30.10;99.90
27781;DHT22;15167;1.318;103.762;2023-05-07T12:15:50;30.00;99.90
27781;DHT22;15167;1.318;103.762;2023-05-07T12:18:17;30.00;99.90
27781;DHT22;15167;1.318;103.762;2023-05-07T12:20:43;30.00;99.90
27781;DHT22;15167;1.318;103.762;2023-05-07T12:23:10;30.00;99.90
27781;DHT22;15167;1.318;103.762;2023-05-07T12:25:40;30.00;99.90
27781;DHT22;15167;1.318;103.762;2023-05-07T12:28:15;30.00;99.90
27781;DHT22;15167;1.318;103.762;2023-05-07T12:30:45;30.00;99.90
27781;DHT22;15167;1.318;103.762;2023-05-07T12:33:12;30.00;99.90
27781;DHT22;15167;1.318;103.762;2023-05-07T12:35:41;30.00;99.90
27781;DHT22;15167;1.318;103.762;2023-05-07T12:38:12;29.90;99.90
27781;DHT22;15167;1.318;103.762;2023-05-07T12:40:45;29.90;99.90
27781;DHT22;15167;1.318;103.762;2023-05-07T12:43:25;30.00;99.90
27781;DHT22;15167;1.318;103.762;2023-05-07T12:45:53;30.00;99.90
27781;DHT22;15167;1.318;103.762;2023-05-07T12:48:19;29.90;99.90
27781;DHT22;15167;1.318;103.762;2023-05-07T12:50:55;29.90;99.90
27781;DHT22;15167;1.318;103.762;2023-05-07T12:53:22;29.90;99.90
27781;DHT22;15167;1.318;103.762;2023-05-07T12:55:49;29.90;99.90
27781;DHT22;15167;1.318;103.762;2023-05-07T12:58:16;29.90;99.90
27781;DHT22;15167;1.318;103.762;2023-05-07T13:00:42;29.90;99.90
27781;DHT22;15167;1.318;103.762;2023-05-07T13:03:09;29.90;99.90
27781;DHT22;15167;1.318;103.762;2023-05-07T13:05:35;29.80;99.90
27781;DHT22;15167;1.318;103.762;2023-05-07T13:08:01;29.80;99.90
27781;DHT22;15167;1.318;103.762;2023-05-07T13:10:27;29.80;99.90
27781;DHT22;15167;1.318;103.762;2023-05-07T13:12:54;29.80;99.90
27781;DHT22;15167;1.318;103.762;2023-05-07T13:15:20;29.80;99.90
27781;DHT22;15167;1.318;103.762;2023-05-07T13:17:47;29.80;99.90
27781;DHT22;15167;1.318;103.762;2023-05-07T13:20:13;29.70;99.90
27781;DHT22;15167;1.318;103.762;2023-05-07T13:22:39;29.80;99.90
27781;DHT22;15167;1.318;103.762;2023-05-07T13:25:05;29.80;99.90
27781;DHT22;15167;1.318;103.762;2023-05-07T13:27:32;29.70;99.90
27781;DHT22;15167;1.318;103.762;2023-05-07T13:30:02;29.70;99.90
27781;DHT22;15167;1.318;103.762;2023-05-07T13:32:29;29.80;99.90
27781;DHT22;15167;1.318;103.762;2023-05-07T13:34:55;29.70;99.90
27781;DHT22;15167;1.318;103.762;2023-05-07T13:37:21;29.70;99.90
27781;DHT22;15167;1.318;103.762;2023-05-07T13:39:47;29.70;99.90
27781;DHT22;15167;1.318;103.762;2023-05-07T13:42:14;29.70;99.90
27781;DHT22;15167;1.318;103.762;2023-05-07T13:44:40;29.70;99.90
27781;DHT22;15167;1.318;103.762;2023-05-07T13:47:06;29.70;99.90
27781;DHT22;15167;1.318;103.762;2023-05-07T13:49:32;29.70;99.90
27781;DHT22;15167;1.318;103.762;2023-05-07T13:51:58;29.70;99.90
27781;DHT22;15167;1.318;103.762;2023-05-07T13:54:24;29.70;99.90
27781;DHT22;15167;1.318;103.762;2023-05-07T13:56:50;29.70;99.90
27781;DHT22;15167;1.318;103.762;2023-05-07T13:59:16;29.70;99.90
27781;DHT22;15167;1.318;103.762;2023-05-07T14:01:43;29.70;99.90
27781;DHT22;15167;1.318;103.762;2023-05-07T14:04:09;29.70;99.90
27781;DHT22;15167;1.318;103.762;2023-05-07T14:06:35;29.60;99.90
27781;DHT22;15167;1.318;103.762;2023-05-07T14:09:01;29.60;99.90
27781;DHT22;15167;1.318;103.762;2023-05-07T14:11:27;29.60;99.90
27781;DHT22;15167;1.318;103.762;2023-05-07T14:13:54;29.50;99.90
27781;DHT22;15167;1.318;103.762;2023-05-07T14:16:20;29.50;99.90
27781;DHT22;15167;1.318;103.762;2023-05-07T14:18:46;29.50;99.90
27781;DHT22;15167;1.318;103.762;2023-05-07T14:21:12;29.50;99.90
27781;DHT22;15167;1.318;103.762;2023-05-07T14:23:38;29.60;99.90
27781;DHT22;15167;1.318;103.762;2023-05-07T14:26:04;29.50;99.90
27781;DHT22;15167;1.318;103.762;2023-05-07T14:28:30;29.60;99.90
27781;DHT22;15167;1.318;103.762;2023-05-07T14:30:57;29.60;99.90
27781;DHT22;15167;1.318;103.762;2023-05-07T14:33:23;29.50;99.90
27781;DHT22;15167;1.318;103.762;2023-05-07T14:35:49;29.50;99.90
27781;DHT22;15167;1.318;103.762;2023-05-07T14:38:15;29.50;99.90
27781;DHT22;15167;1.318;103.762;2023-05-07T14:40:41;29.60;99.90
27781;DHT22;15167;1.318;103.762;2023-05-07T14:43:07;29.60;99.90
27781;DHT22;15167;1.318;103.762;2023-05-07T14:45:34;29.60;99.90
27781;DHT22;15167;1.318;103.762;2023-05-07T14:48:00;29.50;99.90
27781;DHT22;15167;1.318;103.762;2023-05-07T14:50:26;29.50;99.90
27781;DHT22;15167;1.318;103.762;2023-05-07T14:52:52;29.40;99.90
27781;DHT22;15167;1.318;103.762;2023-05-07T14:55:18;29.40;99.90
27781;DHT22;15167;1.318;103.762;2023-05-07T14:57:44;29.40;99.90
27781;DHT22;15167;1.318;103.762;2023-05-07T15:00:11;29.40;99.90
27781;DHT22;15167;1.318;103.762;2023-05-07T15:02:37;29.40;99.90
27781;DHT22;15167;1.318;103.762;2023-05-07T15:05:03;29.40;99.90
27781;DHT22;15167;1.318;103.762;2023-05-07T15:07:30;29.40;99.90
27781;DHT22;15167;1.318;103.762;2023-05-07T15:09:58;29.40;99.90
27781;DHT22;15167;1.318;103.762;2023-05-07T15:12:24;29.40;99.90
27781;DHT22;15167;1.318;103.762;2023-05-07T15:14:50;29.40;99.90
27781;DHT22;15167;1.318;103.762;2023-05-07T15:17:16;29.40;99.90
27781;DHT22;15167;1.318;103.762;2023-05-07T15:19:42;29.40;99.90
27781;DHT22;15167;1.318;103.762;2023-05-07T15:22:08;29.40;99.90
27781;DHT22;15167;1.318;103.762;2023-05-07T15:24:34;29.40;99.90
27781;DHT22;15167;1.318;103.762;2023-05-07T15:27:01;29.40;99.90
27781;DHT22;15167;1.318;103.762;2023-05-07T15:29:28;29.40;99.90
27781;DHT22;15167;1.318;103.762;2023-05-07T15:31:54;29.30;99.90
27781;DHT22;15167;1.318;103.762;2023-05-07T15:34:21;29.40;99.90
27781;DHT22;15167;1.318;103.762;2023-05-07T15:36:47;29.40;99.90
27781;DHT22;15167;1.318;103.762;2023-05-07T15:39:14;29.30;99.90
27781;DHT22;15167;1.318;103.762;2023-05-07T15:41:40;29.40;99.90